createdAt,value
2023-04-18T00:02:26.116Z,100036.81
2023-04-18T00:05:40.375Z,100033.25
2023-04-18T00:08:52.743Z,100032.44
2023-04-18T00:12:05.604Z,100025.66
2023-04-18T00:15:18.566Z,100033.31
2023-04-18T00:18:31.560Z,100033.69
2023-04-18T00:21:45.146Z,100037.91
2023-04-18T00:24:57.906Z,100035.69
2023-04-18T00:28:10.411Z,100044.13
2023-04-18T00:31:23.144Z,100041.69
2023-04-18T00:34:36.280Z,100044.91
2023-04-18T00:37:48.905Z,100050.06
2023-04-18T00:41:01.418Z,100055.34
2023-04-18T00:44:14.515Z,100044.88
2023-04-18T00:47:27.171Z,100038.00
2023-04-18T00:50:41.681Z,100042.25
2023-04-18T00:53:54.431Z,100038.59
2023-04-18T00:57:07.960Z,100041.66
2023-04-18T01:00:20.491Z,100035.19
2023-04-18T01:03:34.755Z,100043.25
2023-04-18T01:06:47.348Z,100034.03
2023-04-18T01:10:00.630Z,100035.00
2023-04-18T01:13:17.318Z,100034.84
2023-04-18T01:16:32.830Z,100033.22
2023-04-18T01:19:46.888Z,100030.41
2023-04-18T01:22:59.494Z,100026.13
2023-04-18T01:26:11.823Z,100025.91
2023-04-18T01:29:25.335Z,100029.19
2023-04-18T01:32:37.768Z,100021.19
2023-04-18T01:35:51.676Z,100024.38
2023-04-18T01:39:04.050Z,100023.94
2023-04-18T01:42:16.663Z,100023.50
2023-04-18T01:45:29.700Z,100029.72
2023-04-18T01:48:42.770Z,100027.22
2023-04-18T01:51:55.140Z,100032.41
2023-04-18T01:55:08.227Z,100036.84
2023-04-18T01:58:23.719Z,100035.59
2023-04-18T02:01:36.458Z,100035.78
2023-04-18T02:04:49.097Z,100037.78
2023-04-18T02:08:01.515Z,100036.87
2023-04-18T02:11:14.215Z,100031.19
2023-04-18T02:14:27.245Z,100035.66
2023-04-18T02:17:41.647Z,100038.03
2023-04-18T02:20:54.320Z,100037.44
2023-04-18T02:24:07.591Z,100039.69
2023-04-18T02:27:19.956Z,100036.66
2023-04-18T02:30:35.569Z,100040.78
2023-04-18T02:33:48.182Z,100036.44
2023-04-18T02:37:00.787Z,100042.66
2023-04-18T02:40:13.263Z,100048.88
2023-04-18T02:43:25.874Z,100040.91
2023-04-18T02:46:38.483Z,100043.06
2023-04-18T02:49:51.896Z,100050.72
2023-04-18T02:53:04.470Z,100050.06
2023-04-18T02:56:17.466Z,100053.69
2023-04-18T02:59:32.138Z,100044.50
2023-04-18T03:02:46.044Z,100060.56
2023-04-18T03:06:00.360Z,100052.16
2023-04-18T03:09:13.525Z,100056.16
2023-04-18T03:12:26.714Z,100057.59
2023-04-18T03:15:39.483Z,100057.00
2023-04-18T03:18:52.270Z,100052.53
2023-04-18T03:22:06.088Z,100057.78
2023-04-18T03:25:18.969Z,100059.38
2023-04-18T03:28:32.023Z,100059.16
2023-04-18T03:31:44.473Z,100061.41
2023-04-18T03:34:57.322Z,100060.16
2023-04-18T03:38:09.719Z,100063.38
2023-04-18T03:41:23.816Z,100058.53
2023-04-18T03:44:36.217Z,100066.97
2023-04-18T03:47:49.013Z,100065.00
2023-04-18T03:51:02.256Z,100057.94
2023-04-18T03:54:16.890Z,100058.13
2023-04-18T03:57:29.485Z,100060.13
2023-04-18T04:00:43.116Z,100064.88
2023-04-18T04:03:56.123Z,100062.97
2023-04-18T04:07:08.801Z,100067.91
2023-04-18T04:10:21.850Z,100074.59
2023-04-18T04:13:34.445Z,100079.53
2023-04-18T04:16:47.893Z,100080.97
2023-04-18T04:20:00.996Z,100076.84
2023-04-18T04:23:15.417Z,100081.37
2023-04-18T04:26:30.776Z,100088.97
2023-04-18T04:29:44.321Z,100088.00
2023-04-18T04:32:58.283Z,100089.88
2023-04-18T04:36:11.085Z,100098.66
2023-04-18T04:39:23.577Z,100088.59
2023-04-18T04:42:37.639Z,100096.25
2023-04-18T04:45:53.160Z,100105.50
2023-04-18T04:49:08.085Z,100108.03
2023-04-18T04:52:20.549Z,100109.09
2023-04-18T04:55:33.672Z,100114.47
2023-04-18T04:58:47.250Z,100114.69
2023-04-18T05:02:00.328Z,100119.13
2023-04-18T05:05:12.808Z,100125.34
2023-04-18T05:08:26.247Z,100117.06
2023-04-18T05:11:38.565Z,100125.13
2023-04-18T05:14:51.254Z,100124.28
2023-04-18T05:18:03.786Z,100129.91
2023-04-18T05:21:16.434Z,100132.53
2023-04-18T05:24:29.063Z,100127.06
2023-04-18T05:27:43.091Z,100130.03
2023-04-18T05:31:01.565Z,100128.97
2023-04-18T05:34:15.901Z,100127.84
2023-04-18T05:37:28.561Z,100130.94
2023-04-18T05:40:42.503Z,100140.19
2023-04-18T05:44:04.832Z,100138.31
2023-04-18T05:47:19.879Z,100136.88
2023-04-18T05:50:33.376Z,100138.41
2023-04-18T05:53:47.599Z,100145.47
2023-04-18T05:57:00.910Z,100146.91
2023-04-18T06:00:17.220Z,100147.28
2023-04-18T06:03:31.120Z,100147.12
2023-04-18T06:06:43.618Z,100144.78
2023-04-18T06:09:56.697Z,100152.25
2023-04-18T06:13:09.070Z,100148.84
2023-04-18T06:16:22.322Z,100146.19
2023-04-18T06:19:34.713Z,100145.19
2023-04-18T06:22:47.383Z,100157.38
2023-04-18T06:25:59.742Z,100151.91
2023-04-18T06:29:12.440Z,100156.47
2023-04-18T06:32:24.844Z,100160.34
2023-04-18T06:35:37.544Z,100160.22
2023-04-18T06:38:49.936Z,100166.91
2023-04-18T06:42:04.745Z,100160.38
2023-04-18T06:45:17.329Z,100162.56
2023-04-18T06:48:29.991Z,100159.28
2023-04-18T06:51:42.337Z,100166.50
2023-04-18T06:54:55.011Z,100163.00
2023-04-18T06:58:08.532Z,100168.31
2023-04-18T07:01:21.311Z,100166.00
2023-04-18T07:04:34.058Z,100178.22
2023-04-18T07:07:46.811Z,100175.16
2023-04-18T07:10:59.189Z,100171.88
2023-04-18T07:14:12.351Z,100172.00
2023-04-18T07:17:24.879Z,100170.53
2023-04-18T07:20:37.687Z,100172.09
2023-04-18T07:23:50.050Z,100168.84
2023-04-18T07:27:03.307Z,100178.28
2023-04-18T07:30:15.880Z,100175.66
2023-04-18T07:33:31.828Z,100184.31
2023-04-18T07:36:44.213Z,100184.97
2023-04-18T07:39:56.881Z,100181.97
2023-04-18T07:43:09.260Z,100183.41
2023-04-18T07:46:24.898Z,100186.09
2023-04-18T07:49:38.500Z,100183.00
2023-04-18T07:52:51.239Z,100188.47
2023-04-18T07:56:03.641Z,100191.16
2023-04-18T07:59:16.794Z,100189.31
2023-04-18T08:02:29.503Z,100194.84
2023-04-18T08:05:42.826Z,100203.13
2023-04-18T08:08:55.583Z,100187.09
2023-04-18T08:12:08.296Z,100189.94
2023-04-18T08:15:20.718Z,100195.59
2023-04-18T08:18:33.341Z,100191.81
2023-04-18T08:21:45.773Z,100204.88
2023-04-18T08:25:05.065Z,100196.19
2023-04-18T08:28:18.053Z,100206.00
2023-04-18T08:31:31.743Z,100205.56
2023-04-18T08:34:44.392Z,100206.63
2023-04-18T08:37:57.032Z,100211.59
2023-04-18T08:41:09.890Z,100205.72
2023-04-18T08:44:22.946Z,100210.31
2023-04-18T08:47:35.691Z,100207.66
2023-04-18T08:50:48.457Z,100213.56
2023-04-18T08:54:04.732Z,100210.56
2023-04-18T08:57:18.371Z,100213.13
2023-04-18T09:00:33.462Z,100216.81
2023-04-18T09:03:46.165Z,100213.13
2023-04-18T09:06:59.082Z,100213.25
2023-04-18T09:10:12.691Z,100216.66
2023-04-18T09:13:40.299Z,100217.97
2023-04-18T09:16:53.400Z,100210.00
2023-04-18T09:20:06.566Z,100208.88
2023-04-18T09:23:23.473Z,100223.00
2023-04-18T09:26:36.486Z,100211.44
2023-04-18T09:29:51.920Z,100212.28
2023-04-18T09:33:05.752Z,100212.38
2023-04-18T09:36:29.067Z,100212.19
2023-04-18T09:39:43.035Z,100217.13
2023-04-18T09:42:55.994Z,100212.28
2023-04-18T09:46:08.887Z,100215.12
2023-04-18T09:49:22.238Z,100220.47
2023-04-18T09:52:36.082Z,100203.91
2023-04-18T09:55:57.681Z,100218.19
2023-04-18T09:59:11.715Z,100215.34
2023-04-18T10:02:24.658Z,100207.34
2023-04-18T10:05:39.618Z,100217.25
2023-04-18T10:08:53.127Z,100213.00
2023-04-18T10:12:05.924Z,100222.66
2023-04-18T10:15:18.446Z,100224.34
2023-04-18T10:18:31.194Z,100228.78
2023-04-18T10:21:54.528Z,100230.69
2023-04-18T10:25:07.655Z,100230.63
2023-04-18T10:28:21.341Z,100224.22
2023-04-18T10:31:38.780Z,100208.62
2023-04-18T10:34:53.893Z,100212.34
2023-04-18T10:38:06.571Z,100217.06
2023-04-18T10:41:29.292Z,100210.31
2023-04-18T10:44:41.976Z,100208.22
2023-04-18T11:04:14.137Z,100211.16
2023-04-18T11:07:37.836Z,100214.06
2023-04-18T11:11:04.234Z,100217.94
2023-04-18T11:14:17.266Z,100223.56
2023-04-18T11:17:34.929Z,100222.81
2023-04-18T11:20:51.198Z,100215.12
2023-04-18T11:24:03.571Z,100215.62
2023-04-18T11:27:16.291Z,100222.09
2023-04-18T11:30:31.407Z,100229.53
2023-04-18T11:33:47.316Z,100225.94
2023-04-18T11:36:59.757Z,100233.56
2023-04-18T11:40:13.440Z,100219.63
2023-04-18T11:43:25.956Z,100226.59
2023-04-18T11:46:39.794Z,100221.97
2023-04-18T11:50:02.167Z,100224.03
2023-04-18T11:53:14.805Z,100217.19
2023-04-18T11:56:27.196Z,100213.47
2023-04-18T11:59:39.907Z,100207.03
2023-04-18T12:02:52.444Z,100211.56
2023-04-18T12:06:05.594Z,100207.06
2023-04-18T12:09:21.352Z,100208.41
2023-04-18T12:12:34.332Z,100213.13
2023-04-18T12:15:46.907Z,100215.09
2023-04-18T12:19:00.881Z,100220.16
2023-04-18T12:22:16.721Z,100215.09
2023-04-18T12:25:29.687Z,100215.91
2023-04-18T12:28:44.686Z,100212.44
2023-04-18T12:31:57.523Z,100217.78
2023-04-18T12:35:09.947Z,100208.16
2023-04-18T12:38:23.378Z,100213.75
2023-04-18T12:41:35.749Z,100210.78
2023-04-18T12:44:48.373Z,100219.31
2023-04-18T12:48:00.811Z,100215.56
2023-04-18T12:51:13.579Z,100221.94
2023-04-18T12:54:26.098Z,100205.44
2023-04-18T12:57:40.061Z,100216.56
2023-04-18T13:00:52.518Z,100218.09
2023-04-18T13:04:12.300Z,100221.72
2023-04-18T13:07:25.679Z,100214.63
2023-04-18T13:10:38.391Z,100209.50
2023-04-18T13:13:51.091Z,100216.16
2023-04-18T13:17:03.791Z,100210.84
2023-04-18T13:20:16.496Z,100217.72
2023-04-18T13:23:29.112Z,100221.75
2023-04-18T13:26:41.711Z,100227.16
2023-04-18T13:29:55.161Z,100228.69
2023-04-18T13:33:07.609Z,100222.44
2023-04-18T13:36:20.686Z,100229.31
2023-04-18T13:39:33.736Z,100221.94
2023-04-18T13:42:46.334Z,100223.87
2023-04-18T13:45:58.779Z,100221.22
2023-04-18T13:49:11.570Z,100217.25
2023-04-18T13:52:23.966Z,100214.03
2023-04-18T13:55:36.894Z,100219.00
2023-04-18T13:58:49.230Z,100218.50
2023-04-18T14:02:02.050Z,100215.62
2023-04-18T14:05:14.713Z,100218.91
2023-04-18T14:08:27.095Z,100206.78
2023-04-18T14:11:40.725Z,100210.56
2023-04-18T14:14:53.115Z,100212.56
2023-04-18T14:18:06.520Z,100213.97
2023-04-18T14:21:18.943Z,100216.94
2023-04-18T14:24:31.614Z,100218.81
2023-04-18T14:27:47.354Z,100214.31
2023-04-18T14:31:02.206Z,100208.19
2023-04-18T14:34:14.740Z,100213.44
2023-04-18T14:37:27.419Z,100209.97
2023-04-18T14:40:39.841Z,100213.97
2023-04-18T14:43:52.578Z,100212.38
2023-04-18T14:47:05.098Z,100207.84
2023-04-18T14:50:17.973Z,100214.94
2023-04-18T14:53:30.491Z,100206.91
2023-04-18T14:56:43.136Z,100208.94
2023-04-18T14:59:55.559Z,100217.84
2023-04-18T15:03:11.214Z,100215.47
2023-04-18T15:06:23.945Z,100218.16
2023-04-18T15:09:37.415Z,100220.56
2023-04-18T15:12:51.149Z,100213.75
2023-04-18T15:16:03.971Z,100215.28
2023-04-18T15:19:16.364Z,100214.34
2023-04-18T15:22:31.812Z,100204.75
2023-04-18T15:25:44.557Z,100210.94
2023-04-18T15:28:57.180Z,100209.69
2023-04-18T15:32:10.225Z,100204.41
2023-04-18T15:35:23.079Z,100201.53
2023-04-18T15:38:35.570Z,100205.00
2023-04-18T15:41:48.213Z,100202.13
2023-04-18T15:45:00.630Z,100198.22
2023-04-18T15:48:13.317Z,100202.91
2023-04-18T15:51:30.297Z,100199.97
2023-04-18T15:54:43.042Z,100201.44
2023-04-18T15:57:55.616Z,100197.19
2023-04-18T16:01:08.452Z,100195.84
2023-04-18T16:04:21.334Z,100197.69
2023-04-18T16:07:33.716Z,100193.53
2023-04-18T16:10:46.401Z,100190.84
2023-04-18T16:13:58.788Z,100193.63
2023-04-18T16:17:11.408Z,100203.16
2023-04-18T16:20:23.737Z,100202.16
2023-04-18T16:23:36.376Z,100206.13
2023-04-18T16:26:48.824Z,100203.37
2023-04-18T16:30:01.508Z,100206.09
2023-04-18T16:33:14.112Z,100208.72
2023-04-18T16:36:26.953Z,100206.34
2023-04-18T16:39:39.432Z,100221.84
2023-04-18T16:42:52.797Z,100215.69
2023-04-18T16:46:05.620Z,100215.34
2023-04-18T16:49:19.098Z,100212.72
2023-04-18T16:52:31.583Z,100214.75
2023-04-18T16:55:44.265Z,100213.59
2023-04-18T16:58:56.558Z,100216.53
2023-04-18T17:02:09.315Z,100213.06
2023-04-18T17:05:23.201Z,100217.97
2023-04-18T17:08:36.051Z,100216.56
2023-04-18T17:11:48.497Z,100216.69
2023-04-18T17:15:01.092Z,100212.34
2023-04-18T17:18:13.578Z,100212.66
2023-04-18T17:21:27.405Z,100213.50
2023-04-18T17:24:39.718Z,100215.62
2023-04-18T17:27:52.390Z,100212.53
2023-04-18T17:31:04.884Z,100216.13
2023-04-18T17:34:17.583Z,100210.75
2023-04-18T17:37:30.741Z,100214.31
2023-04-18T17:40:44.392Z,100212.97
2023-04-18T17:43:58.132Z,100224.44
2023-04-18T17:47:10.906Z,100215.69
2023-04-18T17:50:24.349Z,100225.81
2023-04-18T17:53:37.026Z,100228.22
2023-04-18T17:56:50.386Z,100236.00
2023-04-18T18:00:07.278Z,100232.25
2023-04-18T18:03:24.692Z,100238.16
2023-04-18T18:06:37.489Z,100231.53
2023-04-18T18:09:49.871Z,100243.09
2023-04-18T18:13:02.611Z,100248.22
2023-04-18T18:16:14.980Z,100254.16
2023-04-18T18:19:27.741Z,100251.59
2023-04-18T18:22:40.531Z,100260.31
2023-04-18T18:25:53.144Z,100262.00
2023-04-18T18:29:09.410Z,100266.06
2023-04-18T18:32:22.247Z,100275.22
2023-04-18T18:35:35.063Z,100282.56
2023-04-18T18:38:47.775Z,100300.03
2023-04-18T18:42:00.265Z,100290.12
2023-04-18T18:45:13.374Z,100302.00
2023-04-18T18:48:27.563Z,100293.97
2023-04-18T18:51:41.016Z,100298.31
2023-04-18T18:54:53.484Z,100302.78
2023-04-18T18:58:08.038Z,100301.87
2023-04-18T19:01:20.783Z,100296.47
2023-04-18T19:04:33.942Z,100297.41
2023-04-18T19:07:46.411Z,100301.50
2023-04-18T19:10:59.025Z,100298.06
2023-04-18T19:14:11.354Z,100301.00
2023-04-18T19:17:24.874Z,100303.12
2023-04-18T19:20:39.007Z,100307.91
2023-04-18T19:23:51.633Z,100312.31
2023-04-18T19:27:04.082Z,100312.38
2023-04-18T19:30:16.843Z,100312.16
2023-04-18T19:33:29.409Z,100303.12
2023-04-18T19:36:42.091Z,100306.50
2023-04-18T19:39:54.447Z,100312.16
2023-04-18T19:43:07.140Z,100306.34
2023-04-18T19:46:19.578Z,100302.56
2023-04-18T19:49:32.227Z,100314.22
2023-04-18T19:52:44.546Z,100308.09
2023-04-18T19:55:57.321Z,100315.56
2023-04-18T19:59:09.705Z,100311.47
2023-04-18T20:02:22.451Z,100322.47
2023-04-18T20:05:35.200Z,100317.38
2023-04-18T20:08:47.683Z,100314.06
2023-04-18T20:12:02.134Z,100321.66
2023-04-18T20:15:14.550Z,100316.50
2023-04-18T20:18:27.252Z,100323.44
2023-04-18T20:21:39.592Z,100321.63
2023-04-18T20:24:52.956Z,100325.59
2023-04-18T20:28:05.418Z,100331.38
2023-04-18T20:31:20.947Z,100332.13
2023-04-18T20:34:33.413Z,100325.09
2023-04-18T20:37:46.180Z,100328.91
2023-04-18T20:40:58.873Z,100333.56
2023-04-18T20:44:13.736Z,100344.19
2023-04-18T20:47:26.971Z,100337.97
2023-04-18T20:50:40.206Z,100338.06
2023-04-18T20:53:52.695Z,100330.31
2023-04-18T20:57:05.329Z,100325.94
2023-04-18T21:00:18.497Z,100317.34
2023-04-18T21:03:31.276Z,100313.81
2023-04-18T21:06:43.801Z,100310.09
2023-04-18T21:09:59.275Z,100307.28
2023-04-18T21:13:12.702Z,100304.84
2023-04-18T21:16:25.864Z,100298.84
2023-04-18T21:19:38.292Z,100297.63
2023-04-18T21:22:50.917Z,100299.13
2023-04-18T21:26:03.378Z,100302.31
2023-04-18T21:29:16.129Z,100306.84
2023-04-18T21:32:28.716Z,100300.69
2023-04-18T21:35:41.337Z,100307.19
2023-04-18T21:38:54.414Z,100304.69
2023-04-18T21:42:07.006Z,100300.28
2023-04-18T21:45:19.336Z,100295.84
2023-04-18T21:48:31.973Z,100301.44
2023-04-18T21:51:44.969Z,100300.53
2023-04-18T21:54:59.226Z,100295.22
2023-04-18T21:58:11.561Z,100294.84
2023-04-18T22:01:24.297Z,100289.50
2023-04-18T22:04:38.214Z,100291.97
2023-04-18T22:07:58.045Z,100285.53
2023-04-18T22:11:11.865Z,100285.50
2023-04-18T22:14:24.804Z,100284.84
2023-04-18T22:17:38.047Z,100282.38
2023-04-18T22:20:50.460Z,100281.09
2023-04-18T22:24:03.291Z,100275.25
2023-04-18T22:27:15.663Z,100277.84
2023-04-18T22:30:28.393Z,100274.34
2023-04-18T22:33:40.790Z,100272.44
2023-04-18T22:36:53.782Z,100269.19
2023-04-18T22:40:06.839Z,100267.63
2023-04-18T22:43:22.964Z,100265.00
2023-04-18T22:46:38.422Z,100268.28
2023-04-18T22:49:51.800Z,100264.19
2023-04-18T22:53:04.284Z,100254.78
2023-04-18T22:56:16.935Z,100245.84
2023-04-18T22:59:29.243Z,100238.66
2023-04-18T23:02:42.093Z,100234.91
2023-04-18T23:05:54.604Z,100235.44
2023-04-18T23:09:07.809Z,100236.34
2023-04-18T23:12:20.146Z,100233.81
2023-04-18T23:15:32.910Z,100227.81
2023-04-18T23:18:45.368Z,100232.56
2023-04-18T23:21:57.962Z,100229.19
2023-04-18T23:25:10.352Z,100224.81
2023-04-18T23:28:23.263Z,100222.22
2023-04-18T23:31:35.739Z,100210.53
2023-04-18T23:34:48.383Z,100212.16
2023-04-18T23:38:00.756Z,100206.16
2023-04-18T23:41:13.402Z,100209.78
2023-04-18T23:44:25.789Z,100202.19
2023-04-18T23:47:38.422Z,100205.78
2023-04-18T23:50:52.507Z,100202.59
2023-04-18T23:54:05.178Z,100198.19
2023-04-18T23:57:17.562Z,100192.78
